Time;durP1;ratioP1;P1;durP2;ratioP2;P2;SDS_P1;SDS_P2;PMS_P1;PMS_P2;Temp;Humidity;BMP_temperature;BMP_pressure;BME280_temperature;BME280_humidity;BME280_pressure;Samples;Min_cycle;Max_cycle;Signal;HPM_P1;HPM_P2
2022/11/05 00:10:02;;;;;;;32.42;23.48;;;;;;;;;;4469768;32;20611;-86
2022/11/05 00:18:02;;;;;;;34.20;14.15;;;;;;;;;;4468770;32;20237;-86
2022/11/05 00:20:28;;;;;;;39.17;31.02;;;;;;;;;;4470033;32;20220;-86
2022/11/05 00:25:54;;;;;;;35.20;27.05;;;;;;;;;;4469839;32;20202;-85
2022/11/05 00:28:25;;;;;;;38.90;25.95;;;;;;;;;;4469973;32;20232;-86
2022/11/05 00:30:53;;;;;;;26.80;18.93;;;;;;;;;;4469744;32;20200;-86
2022/11/05 00:33:21;;;;;;;33.05;20.25;;;;;;;;;;4469574;32;20204;-86
2022/11/05 00:35:48;;;;;;;34.67;20.50;;;;;;;;;;4468834;32;20248;-86
2022/11/05 00:38:15;;;;;;;29.65;14.75;;;;;;;;;;4469460;32;20230;-85
2022/11/05 00:40:42;;;;;;;16.15;12.55;;;;;;;;;;4469262;32;20204;-85
2022/11/05 00:45:54;;;;;;;30.75;12.13;;;;;;;;;;4469318;32;20223;-86
2022/11/05 00:51:07;;;;;;;35.80;14.43;;;;;;;;;;4468084;32;20244;-86
2022/11/05 00:53:35;;;;;;;22.30;13.50;;;;;;;;;;4468489;32;20208;-85
2022/11/05 00:56:05;;;;;;;22.70;12.95;;;;;;;;;;4469395;32;20272;-86
2022/11/05 00:58:31;;;;;;;20.87;10.67;;;;;;;;;;4468367;32;20256;-85
2022/11/05 01:01:00;;;;;;;26.43;12.67;;;;;;;;;;4468956;32;20224;-85
2022/11/05 01:03:31;;;;;;;23.27;11.17;;;;;;;;;;4469434;32;20217;-86
2022/11/05 01:05:59;;;;;;;35.80;12.60;;;;;;;;;;4469328;32;20208;-86
2022/11/05 01:08:33;;;;;;;25.80;10.87;;;;;;;;;;4468935;32;20299;-85
2022/11/05 01:11:00;;;;;;;21.85;11.25;;;;;;;;;;4468930;32;20216;-86
2022/11/05 01:13:29;;;;;;;21.37;11.13;;;;;;;;;;4469310;32;20212;-86
2022/11/05 01:16:04;;;;;;;18.42;11.12;;;;;;;;;;4469173;32;20290;-85
2022/11/05 01:18:39;;;;;;;20.67;11.60;;;;;;;;;;4468883;32;20230;-86
2022/11/05 01:21:16;;;;;;;26.90;12.13;;;;;;;;;;4469215;32;20267;-85
2022/11/05 01:23:43;;;;;;;24.53;11.37;;;;;;;;;;4468959;32;20219;-86
2022/11/05 01:26:10;;;;;;;22.07;11.83;;;;;;;;;;4468707;32;20196;-85
2022/11/05 01:28:37;;;;;;;28.33;12.15;;;;;;;;;;4468878;32;20220;-86
2022/11/05 01:31:07;;;;;;;17.73;12.80;;;;;;;;;;4469098;32;21066;-86
2022/11/05 01:33:35;;;;;;;27.35;12.25;;;;;;;;;;4468569;32;20609;-86
2022/11/05 01:36:04;;;;;;;22.25;12.82;;;;;;;;;;4469048;32;20244;-86
2022/11/05 01:38:31;;;;;;;23.77;12.07;;;;;;;;;;4468797;32;20228;-86
2022/11/05 01:40:58;;;;;;;23.43;13.47;;;;;;;;;;4468389;32;20261;-85
2022/11/05 01:43:25;;;;;;;22.35;13.30;;;;;;;;;;4468312;32;20272;-85
2022/11/05 01:45:56;;;;;;;23.93;14.13;;;;;;;;;;4468003;32;20220;-86
2022/11/05 01:48:30;;;;;;;23.27;12.88;;;;;;;;;;4468883;32;20578;-86
2022/11/05 01:51:01;;;;;;;26.87;17.23;;;;;;;;;;4468439;32;20234;-85
2022/11/05 01:53:33;;;;;;;25.52;16.05;;;;;;;;;;4468573;32;20218;-86
2022/11/05 01:56:05;;;;;;;24.90;15.95;;;;;;;;;;4468851;32;20642;-85
2022/11/05 01:58:36;;;;;;;22.40;13.13;;;;;;;;;;4468582;32;20224;-85
2022/11/05 02:01:03;;;;;;;24.87;14.77;;;;;;;;;;4469097;32;20655;-86
2022/11/05 02:03:30;;;;;;;18.30;12.25;;;;;;;;;;4468467;32;20330;-86
2022/11/05 02:06:02;;;;;;;31.10;12.67;;;;;;;;;;4468693;32;20222;-86
2022/11/05 02:08:42;;;;;;;31.37;13.53;;;;;;;;;;4467804;32;20347;-86
2022/11/05 02:11:09;;;;;;;31.87;12.50;;;;;;;;;;4468641;32;20210;-86
2022/11/05 02:13:38;;;;;;;16.83;10.18;;;;;;;;;;4468606;32;20215;-86
2022/11/05 02:16:14;;;;;;;18.83;10.37;;;;;;;;;;4468645;32;20208;-86
2022/11/05 02:18:51;;;;;;;20.17;10.03;;;;;;;;;;4468253;32;20216;-86
2022/11/05 02:21:46;;;;;;;24.17;10.27;;;;;;;;;;4468331;32;20267;-86
2022/11/05 02:24:58;;;;;;;18.77;10.60;;;;;;;;;;4468468;32;20212;-86
2022/11/05 02:28:03;;;;;;;17.27;10.37;;;;;;;;;;4447489;32;20220;-86
2022/11/05 02:30:45;;;;;;;19.53;10.53;;;;;;;;;;4467053;32;20236;-86
2022/11/05 02:33:41;;;;;;;18.48;11.45;;;;;;;;;;4468236;32;20272;-86
2022/11/05 02:36:27;;;;;;;23.40;11.97;;;;;;;;;;4468342;32;20234;-85
2022/11/05 02:39:06;;;;;;;22.80;13.57;;;;;;;;;;4468394;32;20272;-86
2022/11/05 02:41:40;;;;;;;26.12;14.65;;;;;;;;;;4468162;32;20670;-86
2022/11/05 02:44:22;;;;;;;28.27;14.10;;;;;;;;;;4468252;32;20204;-86
2022/11/05 02:46:58;;;;;;;27.77;12.77;;;;;;;;;;4468003;32;20215;-86
2022/11/05 02:49:37;;;;;;;33.40;13.87;;;;;;;;;;4468132;32;20208;-86
2022/11/05 02:52:08;;;;;;;22.52;13.30;;;;;;;;;;4467943;32;20326;-86
2022/11/05 02:54:38;;;;;;;24.57;14.30;;;;;;;;;;4471485;32;20228;-85
2022/11/05 02:57:06;;;;;;;21.60;13.87;;;;;;;;;;4470761;32;20253;-85
2022/11/05 02:59:33;;;;;;;23.98;14.73;;;;;;;;;;4471354;32;20231;-85
2022/11/05 03:02:04;;;;;;;26.30;15.43;;;;;;;;;;4470616;32;20220;-86
2022/11/05 03:04:35;;;;;;;29.77;20.37;;;;;;;;;;4471228;32;20218;-86
2022/11/05 03:07:24;;;;;;;33.10;19.37;;;;;;;;;;4470677;32;20246;-86
2022/11/05 03:10:09;;;;;;;25.93;17.77;;;;;;;;;;4471268;32;20242;-86
2022/11/05 03:12:55;;;;;;;22.90;14.37;;;;;;;;;;4471061;32;20204;-86
2022/11/05 03:15:33;;;;;;;25.10;12.37;;;;;;;;;;4470778;32;20275;-86
2022/11/05 03:18:10;;;;;;;24.17;13.60;;;;;;;;;;4471063;32;20204;-86
2022/11/05 03:20:44;;;;;;;24.70;13.87;;;;;;;;;;4470490;32;20602;-86
2022/11/05 03:23:19;;;;;;;25.43;17.13;;;;;;;;;;4470564;32;20514;-85
2022/11/05 03:25:49;;;;;;;29.07;15.40;;;;;;;;;;4470846;32;20250;-85
2022/11/05 03:28:18;;;;;;;21.33;15.10;;;;;;;;;;4471016;32;20260;-86
2022/11/05 03:30:47;;;;;;;26.10;16.60;;;;;;;;;;4474103;32;20217;-87
2022/11/05 03:33:20;;;;;;;30.97;18.60;;;;;;;;;;4481284;32;20664;-84
2022/11/05 03:35:51;;;;;;;35.83;22.00;;;;;;;;;;4481904;32;20220;-85
2022/11/05 03:38:22;;;;;;;43.13;26.90;;;;;;;;;;4472689;32;20252;-85
2022/11/05 03:40:54;;;;;;;29.20;19.87;;;;;;;;;;4470806;32;20652;-85
2022/11/05 03:43:24;;;;;;;32.70;20.30;;;;;;;;;;4470906;32;20209;-85
2022/11/05 03:45:57;;;;;;;40.53;19.30;;;;;;;;;;4470220;32;20565;-85
2022/11/05 03:48:29;;;;;;;30.07;19.87;;;;;;;;;;4470430;32;20204;-85
2022/11/05 03:51:08;;;;;;;28.77;17.20;;;;;;;;;;4470025;32;20246;-85
2022/11/05 03:53:42;;;;;;;24.03;15.80;;;;;;;;;;4469368;32;20300;-85
2022/11/05 03:56:17;;;;;;;27.77;14.50;;;;;;;;;;4469012;32;20238;-85
2022/11/05 03:58:45;;;;;;;26.47;15.97;;;;;;;;;;4470538;32;20263;-85
2022/11/05 04:01:12;;;;;;;25.80;16.87;;;;;;;;;;4469798;32;20216;-85
2022/11/05 04:03:42;;;;;;;27.33;16.63;;;;;;;;;;4470562;32;20245;-85
2022/11/05 04:14:25;;;;;;;26.23;17.77;;;;;;;;;;4469832;32;20220;-85
2022/11/05 04:17:06;;;;;;;25.00;16.03;;;;;;;;;;4469675;32;20197;-87
2022/11/05 04:25:08;;;;;;;31.17;17.80;;;;;;;;;;4469591;32;20237;-86
2022/11/05 04:27:35;;;;;;;27.37;18.37;;;;;;;;;;4469464;32;20530;-87
2022/11/05 04:30:19;;;;;;;32.23;18.63;;;;;;;;;;4470020;32;20245;-85
2022/11/05 04:32:57;;;;;;;29.00;17.60;;;;;;;;;;4469593;32;20224;-85
2022/11/05 04:35:28;;;;;;;46.50;18.47;;;;;;;;;;4469595;32;20216;-85
2022/11/05 04:37:54;;;;;;;30.60;18.30;;;;;;;;;;4469442;32;20232;-85
2022/11/05 04:40:23;;;;;;;32.57;17.87;;;;;;;;;;4469799;32;20216;-87
2022/11/05 04:42:50;;;;;;;31.97;17.47;;;;;;;;;;4469254;32;20216;-85
2022/11/05 04:45:17;;;;;;;33.23;18.63;;;;;;;;;;4470010;32;20223;-85
2022/11/05 04:47:44;;;;;;;28.33;17.33;;;;;;;;;;4469090;32;20560;-85
2022/11/05 04:50:12;;;;;;;26.30;16.87;;;;;;;;;;4469251;32;20238;-85
2022/11/05 04:52:40;;;;;;;32.37;17.60;;;;;;;;;;4469199;32;20238;-85
2022/11/05 04:55:10;;;;;;;32.43;16.53;;;;;;;;;;4469575;32;20204;-85
2022/11/05 04:57:38;;;;;;;29.30;18.20;;;;;;;;;;4469430;32;20276;-85
2022/11/05 05:00:09;;;;;;;26.53;17.40;;;;;;;;;;4469020;32;20270;-85
2022/11/05 05:02:37;;;;;;;26.80;16.33;;;;;;;;;;4469149;32;20224;-84
2022/11/05 05:05:06;;;;;;;25.90;16.27;;;;;;;;;;4469125;32;20271;-85
2022/11/05 05:07:33;;;;;;;33.47;17.83;;;;;;;;;;4468937;32;20220;-85
2022/11/05 05:10:01;;;;;;;28.57;18.70;;;;;;;;;;4469614;32;20216;-85
2022/11/05 05:12:28;;;;;;;28.60;17.80;;;;;;;;;;4468823;32;20204;-85
2022/11/05 05:14:56;;;;;;;31.40;19.83;;;;;;;;;;4469373;32;20776;-85
2022/11/05 05:17:23;;;;;;;39.67;21.25;;;;;;;;;;4468399;32;20208;-85
2022/11/05 05:22:34;;;;;;;35.27;18.73;;;;;;;;;;4468754;32;20690;-85
2022/11/05 05:25:02;;;;;;;31.90;20.10;;;;;;;;;;4468738;32;20249;-87
2022/11/05 05:27:30;;;;;;;38.90;19.37;;;;;;;;;;4468979;32;20790;-85
2022/11/05 05:29:58;;;;;;;37.57;21.00;;;;;;;;;;4469037;32;20204;-85
2022/11/05 05:32:26;;;;;;;34.77;22.00;;;;;;;;;;4468555;32;20651;-85
2022/11/05 05:34:53;;;;;;;34.03;20.63;;;;;;;;;;4468850;32;20208;-85
2022/11/05 05:37:20;;;;;;;36.80;21.95;;;;;;;;;;4468467;32;20200;-85
2022/11/05 05:39:47;;;;;;;35.77;22.47;;;;;;;;;;4468294;32;20235;-85
2022/11/05 05:42:15;;;;;;;31.47;21.20;;;;;;;;;;4468401;32;20200;-87
2022/11/05 05:44:42;;;;;;;38.80;21.33;;;;;;;;;;4468891;32;20617;-86
2022/11/05 05:47:13;;;;;;;33.33;22.27;;;;;;;;;;4468384;32;20200;-86
2022/11/05 05:49:40;;;;;;;41.53;23.40;;;;;;;;;;4468743;32;20201;-86
2022/11/05 05:52:10;;;;;;;40.17;25.37;;;;;;;;;;4468779;32;20545;-85
2022/11/05 05:54:44;;;;;;;38.87;23.10;;;;;;;;;;4467224;32;20245;-86
2022/11/05 05:57:11;;;;;;;39.40;23.47;;;;;;;;;;4467210;32;20211;-86
2022/11/05 05:59:39;;;;;;;45.37;24.57;;;;;;;;;;4468369;32;20215;-86
2022/11/05 06:02:07;;;;;;;38.70;23.43;;;;;;;;;;4468695;32;20275;-86
2022/11/05 06:04:33;;;;;;;43.57;23.93;;;;;;;;;;4468585;32;20262;-87
2022/11/05 06:07:00;;;;;;;42.50;24.27;;;;;;;;;;4475888;32;20538;-86
2022/11/05 06:09:27;;;;;;;41.73;22.93;;;;;;;;;;4479287;32;20216;-87
2022/11/05 06:11:54;;;;;;;49.50;24.97;;;;;;;;;;4479128;32;20256;-87
2022/11/05 06:14:21;;;;;;;48.40;27.10;;;;;;;;;;4478021;32;20230;-86
2022/11/05 06:16:49;;;;;;;44.83;28.33;;;;;;;;;;4470290;32;20200;-86
2022/11/05 06:19:16;;;;;;;45.07;28.60;;;;;;;;;;4470939;32;20365;-86
2022/11/05 06:21:42;;;;;;;49.30;28.23;;;;;;;;;;4469072;32;20238;-86
2022/11/05 06:24:10;;;;;;;47.97;26.65;;;;;;;;;;4468166;32;20257;-86
2022/11/05 06:26:41;;;;;;;49.30;28.23;;;;;;;;;;4468310;32;20274;-86
2022/11/05 06:29:08;;;;;;;46.00;29.63;;;;;;;;;;4470730;32;20234;-86
2022/11/05 06:31:36;;;;;;;44.92;28.42;;;;;;;;;;4471237;32;20367;-86
2022/11/05 06:34:04;;;;;;;55.85;33.97;;;;;;;;;;4471200;32;20739;-86
2022/11/05 06:36:32;;;;;;;81.18;46.53;;;;;;;;;;4471089;32;20261;-86
2022/11/05 06:38:59;;;;;;;121.47;60.70;;;;;;;;;;4471086;32;20672;-86
2022/11/05 06:41:26;;;;;;;80.50;46.20;;;;;;;;;;4471671;32;20813;-88
2022/11/05 06:43:53;;;;;;;60.40;37.53;;;;;;;;;;4471426;32;20220;-86
2022/11/05 06:46:22;;;;;;;52.73;31.77;;;;;;;;;;4471019;32;20268;-86
2022/11/05 06:48:49;;;;;;;37.20;23.13;;;;;;;;;;4470966;32;20253;-87
2022/11/05 06:51:18;;;;;;;34.53;23.93;;;;;;;;;;4470796;32;20311;-86
2022/11/05 06:53:47;;;;;;;40.65;26.05;;;;;;;;;;4470851;32;20216;-86
2022/11/05 06:56:14;;;;;;;39.07;23.53;;;;;;;;;;4471148;32;20226;-86
2022/11/05 06:58:44;;;;;;;51.03;25.73;;;;;;;;;;4470743;32;20655;-86
2022/11/05 07:01:14;;;;;;;48.92;26.02;;;;;;;;;;4471310;32;20636;-86
2022/11/05 07:03:41;;;;;;;51.65;26.73;;;;;;;;;;4469737;32;20726;-86
2022/11/05 07:06:08;;;;;;;43.38;25.27;;;;;;;;;;4470740;32;20257;-86
2022/11/05 07:08:38;;;;;;;41.70;26.33;;;;;;;;;;4470786;32;20660;-87
2022/11/05 07:11:05;;;;;;;38.65;24.70;;;;;;;;;;4471127;32;20224;-87
2022/11/05 07:13:31;;;;;;;39.20;24.77;;;;;;;;;;4470540;32;20223;-87
2022/11/05 07:15:58;;;;;;;51.87;24.77;;;;;;;;;;4470187;32;20292;-87
2022/11/05 07:18:26;;;;;;;43.87;25.98;;;;;;;;;;4470688;32;20254;-86
2022/11/05 07:20:53;;;;;;;37.30;25.75;;;;;;;;;;4470414;32;20283;-85
2022/11/05 07:23:20;;;;;;;35.60;24.10;;;;;;;;;;4470364;32;20231;-86
2022/11/05 07:25:48;;;;;;;40.75;27.80;;;;;;;;;;4470931;32;20303;-86
2022/11/05 07:28:15;;;;;;;45.95;28.48;;;;;;;;;;4470483;32;20735;-86
2022/11/05 07:30:42;;;;;;;45.60;30.20;;;;;;;;;;4470839;32;20204;-86
2022/11/05 07:33:09;;;;;;;48.40;30.27;;;;;;;;;;4470377;32;20232;-86
2022/11/05 07:35:36;;;;;;;47.22;31.80;;;;;;;;;;4470305;32;20208;-86
2022/11/05 07:38:03;;;;;;;48.95;30.92;;;;;;;;;;4470334;32;20228;-86
2022/11/05 07:40:30;;;;;;;63.17;29.17;;;;;;;;;;4469741;32;20212;-86
2022/11/05 07:43:00;;;;;;;58.38;30.40;;;;;;;;;;4469923;32;20330;-86
2022/11/05 07:45:29;;;;;;;63.95;30.75;;;;;;;;;;4469391;32;20242;-86
2022/11/05 07:47:57;;;;;;;43.22;24.60;;;;;;;;;;4470049;32;20234;-86
2022/11/05 07:50:28;;;;;;;38.78;22.42;;;;;;;;;;4470114;32;20299;-86
2022/11/05 07:53:00;;;;;;;44.75;22.67;;;;;;;;;;4472640;32;20287;-86
2022/11/05 07:55:29;;;;;;;38.13;24.95;;;;;;;;;;4473259;32;20271;-86
2022/11/05 07:58:00;;;;;;;42.45;25.70;;;;;;;;;;4478004;32;20235;-87
2022/11/05 08:00:29;;;;;;;53.70;27.00;;;;;;;;;;4479839;32;20279;-85
2022/11/05 08:02:58;;;;;;;38.35;26.08;;;;;;;;;;4476846;32;20343;-86
2022/11/05 08:05:28;;;;;;;44.40;26.98;;;;;;;;;;4475917;32;20235;-85
2022/11/05 08:07:56;;;;;;;47.35;25.10;;;;;;;;;;4475228;32;20219;-86
2022/11/05 08:10:24;;;;;;;47.75;27.37;;;;;;;;;;4470270;32;20219;-86
2022/11/05 08:12:55;;;;;;;23.90;15.40;;;;;;;;;;4469674;32;20629;-86
2022/11/05 08:15:25;;;;;;;43.13;25.95;;;;;;;;;;4470385;32;20228;-87
2022/11/05 08:17:58;;;;;;;45.55;26.00;;;;;;;;;;4469965;32;20239;-86
2022/11/05 08:20:25;;;;;;;50.40;27.52;;;;;;;;;;4469875;32;20216;-86
2022/11/05 08:22:53;;;;;;;43.53;25.52;;;;;;;;;;4469957;32;20219;-86
2022/11/05 08:25:20;;;;;;;47.65;26.58;;;;;;;;;;4469884;32;20289;-86
2022/11/05 08:27:47;;;;;;;48.30;27.95;;;;;;;;;;4469310;32;20239;-86
2022/11/05 08:30:14;;;;;;;53.47;28.98;;;;;;;;;;4470020;32;20208;-86
2022/11/05 08:32:43;;;;;;;61.28;28.80;;;;;;;;;;4468781;32;20228;-86
2022/11/05 08:35:09;;;;;;;45.72;29.17;;;;;;;;;;4469310;32;20228;-86
2022/11/05 08:37:37;;;;;;;50.50;28.87;;;;;;;;;;4469200;32;20239;-86
2022/11/05 08:40:06;;;;;;;39.28;26.98;;;;;;;;;;4469272;32;20242;-86
2022/11/05 08:42:33;;;;;;;57.13;26.40;;;;;;;;;;4469195;32;20330;-86
2022/11/05 08:45:00;;;;;;;44.40;26.92;;;;;;;;;;4468902;32;20277;-86
2022/11/05 08:47:27;;;;;;;43.78;26.37;;;;;;;;;;4469174;32;20627;-86
2022/11/05 08:49:55;;;;;;;55.97;29.63;;;;;;;;;;4469004;32;20238;-86
2022/11/05 08:52:22;;;;;;;69.90;27.08;;;;;;;;;;4469400;32;20204;-86
2022/11/05 08:54:50;;;;;;;40.25;26.73;;;;;;;;;;4469196;32;20223;-86
2022/11/05 08:57:17;;;;;;;50.65;28.33;;;;;;;;;;4469018;32;20279;-86
2022/11/05 08:59:44;;;;;;;38.60;26.55;;;;;;;;;;4469023;32;20264;-86
2022/11/05 09:02:16;;;;;;;41.60;27.23;;;;;;;;;;4468884;32;20230;-85
2022/11/05 09:04:43;;;;;;;43.63;25.50;;;;;;;;;;4468904;32;20219;-86
2022/11/05 09:07:12;;;;;;;42.47;21.83;;;;;;;;;;4469265;32;20200;-86
2022/11/05 09:09:39;;;;;;;31.55;20.40;;;;;;;;;;4469142;32;20228;-86
2022/11/05 09:12:06;;;;;;;40.97;18.60;;;;;;;;;;4468736;32;20208;-86
2022/11/05 09:14:33;;;;;;;29.83;18.87;;;;;;;;;;4468933;32;20224;-87
2022/11/05 09:17:00;;;;;;;26.25;16.30;;;;;;;;;;4467697;32;20640;-87
2022/11/05 09:19:29;;;;;;;34.00;16.40;;;;;;;;;;4468688;32;20283;-87
2022/11/05 09:21:58;;;;;;;23.83;15.88;;;;;;;;;;4469183;32;20235;-87
2022/11/05 09:24:26;;;;;;;28.58;18.73;;;;;;;;;;4468667;32;20212;-86
2022/11/05 09:26:53;;;;;;;30.85;17.62;;;;;;;;;;4469083;32;20204;-87
2022/11/05 09:29:20;;;;;;;32.92;18.65;;;;;;;;;;4469040;32;20208;-87
2022/11/05 09:31:47;;;;;;;40.90;21.27;;;;;;;;;;4468475;32;20208;-87
2022/11/05 09:34:13;;;;;;;32.92;21.35;;;;;;;;;;4468966;32;20265;-87
2022/11/05 09:36:40;;;;;;;27.17;15.23;;;;;;;;;;4468836;32;20220;-86
2022/11/05 09:39:07;;;;;;;35.08;16.73;;;;;;;;;;4468445;32;20200;-87
2022/11/05 09:41:38;;;;;;;33.42;12.60;;;;;;;;;;4468296;32;20647;-87
2022/11/05 09:44:11;;;;;;;26.25;14.35;;;;;;;;;;4468648;32;20253;-86
2022/11/05 09:46:43;;;;;;;17.73;11.30;;;;;;;;;;4468742;32;20216;-87
2022/11/05 09:49:20;;;;;;;26.60;11.63;;;;;;;;;;4468669;32;20212;-87
2022/11/05 09:51:47;;;;;;;24.60;12.93;;;;;;;;;;4468258;32;20531;-87
2022/11/05 09:54:14;;;;;;;19.65;10.70;;;;;;;;;;4468368;32;20230;-86
2022/11/05 09:56:46;;;;;;;25.40;11.60;;;;;;;;;;4468114;32;20228;-87
2022/11/05 09:59:21;;;;;;;19.27;11.57;;;;;;;;;;4468550;32;20197;-87
2022/11/05 10:01:48;;;;;;;16.73;10.68;;;;;;;;;;4468298;32;20280;-87
2022/11/05 10:04:19;;;;;;;28.17;12.68;;;;;;;;;;4467977;32;20204;-87
2022/11/05 10:06:52;;;;;;;20.45;9.85;;;;;;;;;;4468627;32;20211;-87
2022/11/05 10:09:21;;;;;;;30.85;13.45;;;;;;;;;;4468682;32;20334;-87
2022/11/05 10:11:54;;;;;;;20.90;11.77;;;;;;;;;;4468240;32;20307;-87
2022/11/05 10:14:24;;;;;;;22.10;10.15;;;;;;;;;;4468691;32;20204;-87
2022/11/05 10:16:54;;;;;;;14.65;9.80;;;;;;;;;;4468557;32;20264;-87
2022/11/05 10:19:26;;;;;;;18.55;9.93;;;;;;;;;;4467953;32;20219;-87
2022/11/05 10:21:55;;;;;;;20.48;10.90;;;;;;;;;;4467978;32;20648;-87
2022/11/05 10:24:23;;;;;;;21.50;11.35;;;;;;;;;;4468064;32;20665;-88
2022/11/05 10:26:54;;;;;;;18.58;11.73;;;;;;;;;;4468320;32;20239;-88
2022/11/05 10:29:29;;;;;;;24.92;11.90;;;;;;;;;;4468390;32;20216;-88
2022/11/05 10:31:57;;;;;;;27.52;11.65;;;;;;;;;;4468634;32;20602;-88
2022/11/05 10:34:29;;;;;;;32.25;13.13;;;;;;;;;;4467966;32;20220;-88
2022/11/05 10:36:56;;;;;;;22.42;12.30;;;;;;;;;;4468193;32;20568;-88
2022/11/05 10:39:26;;;;;;;27.40;16.67;;;;;;;;;;4467950;32;20682;-88
2022/11/05 10:42:21;;;;;;;36.25;20.50;;;;;;;;;;4468320;32;20248;-88
2022/11/05 10:45:05;;;;;;;36.63;17.42;;;;;;;;;;4468052;32;20212;-88
2022/11/05 10:47:49;;;;;;;34.45;15.02;;;;;;;;;;4468132;32;20256;-88
2022/11/05 10:50:18;;;;;;;22.73;12.30;;;;;;;;;;4467833;32;20259;-89
2022/11/05 10:52:58;;;;;;;29.35;12.55;;;;;;;;;;4467706;32;20264;-88
2022/11/05 10:55:29;;;;;;;22.13;11.63;;;;;;;;;;4467939;32;20216;-88
2022/11/05 10:58:11;;;;;;;25.60;11.60;;;;;;;;;;4468469;32;20235;-88
2022/11/05 11:00:43;;;;;;;18.70;12.18;;;;;;;;;;4468739;32;20632;-89
2022/11/05 11:03:33;;;;;;;24.15;12.20;;;;;;;;;;4468777;32;20208;-88
2022/11/05 11:06:01;;;;;;;19.12;11.75;;;;;;;;;;4468841;32;20204;-89
2022/11/05 11:08:29;;;;;;;20.95;10.60;;;;;;;;;;4468437;32;20331;-88
2022/11/05 11:11:02;;;;;;;21.27;10.32;;;;;;;;;;4468501;32;20621;-89
2022/11/05 11:13:52;;;;;;;25.67;10.27;;;;;;;;;;4468803;32;20267;-88
2022/11/05 11:16:24;;;;;;;24.45;11.23;;;;;;;;;;4469696;32;20296;-88
2022/11/05 11:18:53;;;;;;;24.48;11.88;;;;;;;;;;4470972;32;20219;-87
2022/11/05 11:21:23;;;;;;;26.75;11.77;;;;;;;;;;4470501;32;20227;-88
2022/11/05 11:23:57;;;;;;;39.92;13.30;;;;;;;;;;4470980;32;20228;-87
2022/11/05 11:26:25;;;;;;;29.48;14.75;;;;;;;;;;4471176;32;20261;-89
2022/11/05 11:28:58;;;;;;;25.05;11.60;;;;;;;;;;4470718;32;20215;-89
2022/11/05 11:31:27;;;;;;;24.23;10.10;;;;;;;;;;4470875;32;20228;-87
2022/11/05 11:34:00;;;;;;;35.78;12.48;;;;;;;;;;4470331;32;20220;-88
2022/11/05 11:36:34;;;;;;;29.30;19.62;;;;;;;;;;4470520;32;20258;-86
2022/11/05 11:39:05;;;;;;;21.85;12.37;;;;;;;;;;4470486;32;20292;-86
2022/11/05 11:41:40;;;;;;;27.08;13.55;;;;;;;;;;4470373;32;20207;-87
2022/11/05 11:44:14;;;;;;;26.70;13.98;;;;;;;;;;4470253;32;20287;-87
2022/11/05 11:46:44;;;;;;;26.20;12.70;;;;;;;;;;4470281;32;20204;-87
2022/11/05 11:49:31;;;;;;;31.02;14.18;;;;;;;;;;4470371;32;20228;-87
2022/11/05 11:52:03;;;;;;;30.55;15.35;;;;;;;;;;4470008;32;20212;-88
2022/11/05 11:54:35;;;;;;;22.65;11.80;;;;;;;;;;4470243;32;20295;-88
2022/11/05 11:57:02;;;;;;;33.05;15.43;;;;;;;;;;4469896;32;20629;-89
2022/11/05 11:59:31;;;;;;;36.58;14.25;;;;;;;;;;4470087;32;20317;-88
2022/11/05 12:02:43;;;;;;;20.98;12.95;;;;;;;;;;4469841;32;20295;-89
2022/11/05 12:05:36;;;;;;;38.35;22.60;;;;;;;;;;4390154;32;20312;-86
2022/11/05 12:08:18;;;;;;;25.92;14.40;;;;;;;;;;4469113;32;20311;-89
2022/11/05 12:10:54;;;;;;;30.73;16.77;;;;;;;;;;4470515;32;20216;-88
2022/11/05 12:13:51;;;;;;;20.67;11.00;;;;;;;;;;4470304;32;20208;-88
2022/11/05 12:16:29;;;;;;;16.48;9.15;;;;;;;;;;4470155;32;20208;-88
2022/11/05 12:19:10;;;;;;;22.67;11.45;;;;;;;;;;4470614;32;20219;-87
2022/11/05 12:21:46;;;;;;;9.63;7.32;;;;;;;;;;4474602;32;20263;-88
2022/11/05 12:24:28;;;;;;;18.10;9.00;;;;;;;;;;4471866;32;20224;-88
2022/11/05 12:27:10;;;;;;;19.77;7.22;;;;;;;;;;4470601;32;20603;-88
2022/11/05 12:29:48;;;;;;;21.33;7.93;;;;;;;;;;4469860;32;20224;-88
2022/11/05 12:32:44;;;;;;;25.48;6.65;;;;;;;;;;4470020;32;20625;-88
2022/11/05 12:35:27;;;;;;;15.65;5.50;;;;;;;;;;4456289;32;20248;-88
2022/11/05 12:38:04;;;;;;;13.48;4.97;;;;;;;;;;4470630;32;20208;-87
2022/11/05 12:40:51;;;;;;;11.88;4.53;;;;;;;;;;4470671;32;20212;-88
2022/11/05 12:43:30;;;;;;;11.48;3.45;;;;;;;;;;4485136;32;20222;-87
2022/11/05 12:46:14;;;;;;;9.63;4.40;;;;;;;;;;4485700;32;20196;-88
2022/11/05 12:49:23;;;;;;;10.40;4.43;;;;;;;;;;4484797;32;20247;-88
2022/11/05 12:52:12;;;;;;;8.55;4.07;;;;;;;;;;4471607;32;20395;-88
2022/11/05 12:54:54;;;;;;;9.95;4.32;;;;;;;;;;4471501;32;20656;-87
2022/11/05 12:57:23;;;;;;;9.00;4.00;;;;;;;;;;4469696;32;20248;-87
2022/11/05 12:59:53;;;;;;;11.10;4.45;;;;;;;;;;4468935;32;20351;-88
2022/11/05 13:02:25;;;;;;;9.52;5.20;;;;;;;;;;4468819;32;20287;-88
2022/11/05 13:05:00;;;;;;;10.35;3.72;;;;;;;;;;4469115;32;20228;-87
2022/11/05 13:07:33;;;;;;;7.43;4.70;;;;;;;;;;4469171;32;20212;-88
2022/11/05 13:10:05;;;;;;;13.15;4.82;;;;;;;;;;4469458;32;20315;-87
2022/11/05 13:12:38;;;;;;;9.45;5.37;;;;;;;;;;4469262;32;20242;-90
2022/11/05 13:15:15;;;;;;;16.48;5.22;;;;;;;;;;4467917;32;20264;-88
2022/11/05 13:17:50;;;;;;;10.40;5.15;;;;;;;;;;4468307;32;20209;-87
2022/11/05 13:20:32;;;;;;;6.15;4.32;;;;;;;;;;4469223;32;20220;-88
2022/11/05 13:23:13;;;;;;;7.80;4.90;;;;;;;;;;4468986;32;20236;-87
2022/11/05 13:25:47;;;;;;;15.43;8.60;;;;;;;;;;4469251;32;20315;-88
2022/11/05 13:28:22;;;;;;;20.62;5.95;;;;;;;;;;4468062;32;20618;-88
2022/11/05 13:30:53;;;;;;;13.57;4.55;;;;;;;;;;4468669;32;20275;-88
2022/11/05 13:33:27;;;;;;;12.88;5.10;;;;;;;;;;4468794;32;20308;-88
2022/11/05 13:39:08;;;;;;;42.83;7.22;;;;;;;;;;4467967;32;20264;-88
2022/11/05 13:42:01;;;;;;;17.50;5.53;;;;;;;;;;4469139;32;20231;-88
2022/11/05 13:45:01;;;;;;;13.85;6.10;;;;;;;;;;4468834;32;20212;-88
2022/11/05 13:47:42;;;;;;;9.90;6.28;;;;;;;;;;4443227;32;20220;-87
2022/11/05 13:50:48;;;;;;;14.38;6.15;;;;;;;;;;4468314;32;20263;-87
2022/11/05 13:56:56;;;;;;;10.35;6.12;;;;;;;;;;4443949;32;20300;-87
2022/11/05 13:59:51;;;;;;;12.60;6.20;;;;;;;;;;4468519;32;20220;-87
2022/11/05 14:02:23;;;;;;;18.95;7.12;;;;;;;;;;4468825;32;20215;-87
2022/11/05 14:04:53;;;;;;;12.82;6.30;;;;;;;;;;4468780;32;20311;-86
2022/11/05 14:07:23;;;;;;;13.38;5.12;;;;;;;;;;4468202;32;20298;-86
2022/11/05 14:09:58;;;;;;;13.45;5.95;;;;;;;;;;4468723;32;20382;-87
2022/11/05 14:12:29;;;;;;;16.62;6.68;;;;;;;;;;4468674;32;20290;-87
2022/11/05 14:15:07;;;;;;;12.55;5.82;;;;;;;;;;4469155;32;20224;-87
2022/11/05 14:17:54;;;;;;;14.32;6.35;;;;;;;;;;4468493;32;20222;-87
2022/11/05 14:20:41;;;;;;;16.12;7.12;;;;;;;;;;4468435;32;20215;-89
2022/11/05 14:23:39;;;;;;;16.73;6.75;;;;;;;;;;4468442;32;20216;-88
2022/11/05 14:26:18;;;;;;;14.75;7.00;;;;;;;;;;4468234;32;20307;-87
2022/11/05 14:28:52;;;;;;;14.90;8.15;;;;;;;;;;4468363;32;20199;-87
2022/11/05 14:31:38;;;;;;;12.32;7.37;;;;;;;;;;4468084;32;20754;-87
2022/11/05 14:34:24;;;;;;;14.52;6.05;;;;;;;;;;4468921;32;20264;-86
2022/11/05 14:37:22;;;;;;;15.63;6.25;;;;;;;;;;4468318;32;20230;-86
2022/11/05 14:39:49;;;;;;;11.48;5.05;;;;;;;;;;4468290;32;20242;-86
2022/11/05 14:42:23;;;;;;;16.67;6.07;;;;;;;;;;4468347;32;20616;-86
2022/11/05 14:45:05;;;;;;;14.02;6.35;;;;;;;;;;4468086;32;20300;-87
2022/11/05 14:47:35;;;;;;;14.87;8.88;;;;;;;;;;4468320;32;20204;-87
2022/11/05 14:50:10;;;;;;;24.73;11.30;;;;;;;;;;4470503;32;20269;-88
2022/11/05 14:52:49;;;;;;;26.27;11.63;;;;;;;;;;4470966;32;20234;-88
2022/11/05 14:55:30;;;;;;;24.58;11.88;;;;;;;;;;4471199;32;20204;-87
2022/11/05 14:58:21;;;;;;;22.83;9.95;;;;;;;;;;4470775;32;20252;-86
2022/11/05 15:00:48;;;;;;;24.45;10.68;;;;;;;;;;4469535;32;20228;-88
2022/11/05 15:03:34;;;;;;;18.95;8.75;;;;;;;;;;4470652;32;20653;-86
2022/11/05 15:06:21;;;;;;;21.75;8.13;;;;;;;;;;4471178;32;20208;-86
2022/11/05 15:09:18;;;;;;;16.20;7.18;;;;;;;;;;4470993;32;20200;-87
2022/11/05 15:12:01;;;;;;;15.57;6.32;;;;;;;;;;4469683;32;20224;-87
2022/11/05 15:14:33;;;;;;;18.40;9.00;;;;;;;;;;4470938;32;20227;-87
2022/11/05 15:17:16;;;;;;;16.50;9.05;;;;;;;;;;4470824;32;20645;-88
2022/11/05 15:19:44;;;;;;;25.52;10.48;;;;;;;;;;4470671;32;20215;-87
2022/11/05 15:22:26;;;;;;;32.67;12.88;;;;;;;;;;4470241;32;20331;-88
2022/11/05 15:24:53;;;;;;;20.10;7.37;;;;;;;;;;4470558;32;20251;-87
2022/11/05 15:27:29;;;;;;;18.85;8.95;;;;;;;;;;4470285;32;20595;-89
2022/11/05 15:30:17;;;;;;;59.45;33.17;;;;;;;;;;4470154;32;20224;-87
2022/11/05 15:32:47;;;;;;;16.23;8.07;;;;;;;;;;4470735;32;20621;-87
2022/11/05 15:35:20;;;;;;;23.00;7.80;;;;;;;;;;4470289;32;20219;-87
2022/11/05 15:37:48;;;;;;;22.73;10.02;;;;;;;;;;4470478;32;20200;-87
2022/11/05 15:40:26;;;;;;;14.43;8.05;;;;;;;;;;4470186;32;20732;-87